createdAt,value
2022-11-24T00:01:34.530Z,35.91
2022-11-24T00:04:03.971Z,36.11
2022-11-24T00:06:32.373Z,36.11
2022-11-24T00:09:00.485Z,35.98
2022-11-24T00:11:35.174Z,35.97
2022-11-24T00:14:04.764Z,35.97
2022-11-24T00:16:34.720Z,35.95
2022-11-24T00:19:02.908Z,35.97
2022-11-24T00:22:11.682Z,35.96
2022-11-24T00:25:52.219Z,35.90
2022-11-24T00:28:19.774Z,36.05
2022-11-24T00:30:46.517Z,35.87
2022-11-24T00:33:13.294Z,35.99
2022-11-24T00:37:36.550Z,36.00
2022-11-24T00:40:03.665Z,36.02
2022-11-24T00:42:30.225Z,35.90
2022-11-24T00:44:56.864Z,35.99
2022-11-24T00:49:59.254Z,35.82
2022-11-24T00:52:26.177Z,35.78
2022-11-24T00:54:52.785Z,35.95
2022-11-24T01:00:00.850Z,36.08
2022-11-24T01:02:27.653Z,35.96
2022-11-24T01:04:55.695Z,35.96
2022-11-24T01:07:22.414Z,36.06
2022-11-24T01:09:49.220Z,35.86
2022-11-24T01:12:16.403Z,35.90
2022-11-24T01:14:43.814Z,35.76
2022-11-24T01:21:14.854Z,35.92
2022-11-24T01:23:43.117Z,35.95
2022-11-24T01:27:08.282Z,35.91
2022-11-24T01:31:52.228Z,35.76
2022-11-24T01:35:11.084Z,35.85
2022-11-24T01:38:25.599Z,35.93
2022-11-24T01:43:52.512Z,35.78
2022-11-24T01:47:32.913Z,35.79
2022-11-24T01:50:02.317Z,35.75
2022-11-24T01:52:34.574Z,35.88
2022-11-24T01:56:33.287Z,35.90
2022-11-24T01:59:02.887Z,35.77
2022-11-24T02:01:31.528Z,35.78
2022-11-24T02:04:00.035Z,35.93
2022-11-24T02:15:06.673Z,35.88
2022-11-24T02:17:33.414Z,35.80
2022-11-24T02:20:38.425Z,35.75
2022-11-24T02:23:08.514Z,35.87
2022-11-24T02:36:13.347Z,36.23
2022-11-24T02:43:24.851Z,36.64
2022-11-24T02:45:51.939Z,36.66
2022-11-24T02:48:18.911Z,36.94
2022-11-24T02:50:45.676Z,36.67
2022-11-24T02:53:12.479Z,36.75
2022-11-24T02:55:39.226Z,36.65
2022-11-24T02:58:05.898Z,36.63
2022-11-24T03:00:32.801Z,36.59
2022-11-24T03:02:59.460Z,36.65
2022-11-24T03:05:27.105Z,36.65
2022-11-24T03:07:53.660Z,36.61
2022-11-24T03:10:20.306Z,36.56
2022-11-24T03:12:46.911Z,36.53
2022-11-24T03:15:13.949Z,36.46
2022-11-24T03:17:40.923Z,36.42
2022-11-24T03:22:37.327Z,36.31
2022-11-24T03:25:04.701Z,36.44
2022-11-24T03:27:31.717Z,36.33
2022-11-24T03:29:58.374Z,36.34
2022-11-24T03:32:25.516Z,36.28
2022-11-24T03:34:52.242Z,36.36
2022-11-24T03:37:18.962Z,36.25
2022-11-24T03:39:45.575Z,36.43
2022-11-24T03:42:12.122Z,36.20
2022-11-24T03:44:39.167Z,36.15
2022-11-24T03:47:06.182Z,36.24
2022-11-24T03:49:33.255Z,36.13
2022-11-24T03:52:07.799Z,36.12
2022-11-24T03:54:58.591Z,36.10
2022-11-24T03:57:25.331Z,36.10
2022-11-24T03:59:51.922Z,36.10
2022-11-24T04:02:18.859Z,36.09
2022-11-24T04:04:53.779Z,35.97
2022-11-24T04:07:20.535Z,36.04
2022-11-24T04:09:53.166Z,36.05
2022-11-24T04:12:41.634Z,36.07
2022-11-24T04:15:09.191Z,36.14
2022-11-24T04:17:36.130Z,36.17
2022-11-24T04:20:03.303Z,36.14
2022-11-24T04:22:32.711Z,36.20
2022-11-24T04:24:59.503Z,36.27
2022-11-24T04:27:26.075Z,36.16
2022-11-24T04:29:52.795Z,36.17
2022-11-24T04:32:19.938Z,36.20
2022-11-24T04:34:46.832Z,36.23
2022-11-24T04:37:13.576Z,36.17
2022-11-24T04:39:40.162Z,36.25
2022-11-24T04:42:06.909Z,35.96
2022-11-24T04:44:34.196Z,36.22
2022-11-24T04:47:01.376Z,36.20
2022-11-24T04:49:28.237Z,36.29
2022-11-24T04:51:54.910Z,36.28
2022-11-24T04:54:21.764Z,36.24
2022-11-24T04:56:52.039Z,36.51
2022-11-24T04:59:20.014Z,36.71
2022-11-24T05:01:47.115Z,36.81
2022-11-24T05:04:15.662Z,36.80
2022-11-24T05:06:42.434Z,37.17
2022-11-24T05:09:13.378Z,36.95
2022-11-24T05:11:40.131Z,36.90
2022-11-24T05:14:07.003Z,36.86
2022-11-24T05:16:38.129Z,37.10
2022-11-24T05:19:05.949Z,37.12
2022-11-24T05:21:32.955Z,36.98
2022-11-24T05:24:00.016Z,37.20
2022-11-24T05:26:27.656Z,37.21
2022-11-24T05:28:54.599Z,37.22
2022-11-24T05:31:21.347Z,36.97
2022-11-24T05:33:47.911Z,37.01
2022-11-24T05:36:34.484Z,36.94
2022-11-24T05:39:01.346Z,36.94
2022-11-24T05:41:27.919Z,36.90
2022-11-24T05:43:54.483Z,36.66
2022-11-24T05:46:21.075Z,36.79
2022-11-24T05:48:47.826Z,36.83
2022-11-24T05:51:14.550Z,36.72
2022-11-24T05:53:41.215Z,36.75
2022-11-24T05:58:23.055Z,37.18
2022-11-24T06:00:49.914Z,37.30
2022-11-24T06:03:16.745Z,37.58
2022-11-24T06:05:47.314Z,37.84
2022-11-24T06:08:14.209Z,37.55
2022-11-24T06:10:41.293Z,37.46
2022-11-24T06:13:08.808Z,36.98
2022-11-24T06:15:37.560Z,36.99
2022-11-24T06:18:04.508Z,36.62
2022-11-24T06:20:32.927Z,36.82
2022-11-24T06:23:01.046Z,36.78
2022-11-24T06:25:28.789Z,36.65
2022-11-24T06:27:56.084Z,36.62
2022-11-24T06:30:23.094Z,36.85
2022-11-24T06:32:53.914Z,36.78
2022-11-24T06:35:20.926Z,36.76
2022-11-24T06:37:47.445Z,36.79
2022-11-24T06:40:14.370Z,36.60
2022-11-24T06:42:41.019Z,36.56
2022-11-24T06:45:09.528Z,36.41
2022-11-24T06:47:36.695Z,36.42
2022-11-24T06:51:22.087Z,36.49
2022-11-24T06:53:48.717Z,36.39
2022-11-24T06:56:18.915Z,36.28
2022-11-24T06:58:48.248Z,36.46
2022-11-24T07:01:28.983Z,36.49
2022-11-24T07:03:56.830Z,36.41
2022-11-24T07:06:25.171Z,36.33
2022-11-24T07:09:45.333Z,36.41
2022-11-24T07:12:15.254Z,36.36
2022-11-24T07:14:41.746Z,36.51
2022-11-24T07:17:08.543Z,36.25
2022-11-24T07:19:35.720Z,36.35
2022-11-24T07:22:02.678Z,36.39
2022-11-24T07:24:29.418Z,36.37
2022-11-24T07:26:55.985Z,36.39
2022-11-24T07:29:22.648Z,36.25
2022-11-24T07:31:50.070Z,36.93
2022-11-24T07:34:16.898Z,37.53
2022-11-24T07:36:45.084Z,37.52
2022-11-24T07:40:46.561Z,38.10
2022-11-24T07:43:18.617Z,37.77
2022-11-24T07:45:54.326Z,37.45
2022-11-24T07:48:21.187Z,37.55
2022-11-24T07:50:54.104Z,37.44
2022-11-24T07:53:22.664Z,37.18
2022-11-24T07:56:03.143Z,37.19
2022-11-24T07:58:32.887Z,36.89
2022-11-24T08:01:08.181Z,36.92
2022-11-24T08:03:35.937Z,36.77
2022-11-24T08:08:49.172Z,36.74
2022-11-24T08:14:31.853Z,36.62
2022-11-24T08:16:58.955Z,36.55
2022-11-24T08:21:56.977Z,36.50
2022-11-24T08:24:23.604Z,36.57
2022-11-24T08:26:50.094Z,37.10
2022-11-24T08:29:16.897Z,37.56
2022-11-24T08:31:43.475Z,37.94
2022-11-24T08:34:10.779Z,38.01
2022-11-24T08:36:37.488Z,38.13
2022-11-24T08:39:04.107Z,38.19
2022-11-24T08:41:31.246Z,38.18
2022-11-24T08:43:58.474Z,38.13
2022-11-24T08:46:25.149Z,38.12
2022-11-24T08:48:54.655Z,38.15
2022-11-24T08:51:25.053Z,38.24
2022-11-24T08:53:59.609Z,38.03
2022-11-24T08:56:32.206Z,38.09
2022-11-24T08:58:59.113Z,38.21
2022-11-24T09:01:27.175Z,37.99
2022-11-24T09:03:54.633Z,38.10
2022-11-24T09:06:24.886Z,38.02
2022-11-24T09:08:53.820Z,38.05
2022-11-24T09:11:20.435Z,37.75
2022-11-24T09:13:47.634Z,37.75
2022-11-24T09:16:26.038Z,37.98
2022-11-24T09:19:00.971Z,37.82
2022-11-24T09:21:28.196Z,37.72
2022-11-24T09:23:55.422Z,37.80
2022-11-24T09:26:23.575Z,37.91
2022-11-24T09:28:54.258Z,37.84
2022-11-24T09:31:22.992Z,37.91
2022-11-24T09:33:50.267Z,37.84
2022-11-24T09:36:17.574Z,38.04
2022-11-24T09:38:44.398Z,38.04
2022-11-24T09:41:23.348Z,37.76
2022-11-24T09:43:59.279Z,37.94
2022-11-24T09:46:44.664Z,38.18
2022-11-24T09:49:16.631Z,37.77
2022-11-24T09:51:49.850Z,37.85
2022-11-24T09:54:21.156Z,37.21
2022-11-24T09:56:51.530Z,37.41
2022-11-24T09:59:21.538Z,37.51
2022-11-24T10:01:49.955Z,37.45
2022-11-24T10:04:49.048Z,37.54
2022-11-24T10:07:27.964Z,37.68
2022-11-24T10:10:25.739Z,37.93
2022-11-24T10:13:17.174Z,37.72
2022-11-24T10:16:15.438Z,37.95
2022-11-24T10:18:54.593Z,37.98
2022-11-24T10:21:51.437Z,37.69
2022-11-24T10:24:39.984Z,37.72
2022-11-24T10:27:17.672Z,37.59
2022-11-24T10:29:48.083Z,37.72
2022-11-24T10:32:18.079Z,37.58
2022-11-24T10:34:46.395Z,37.45
2022-11-24T10:37:40.663Z,37.40
2022-11-24T10:40:56.597Z,37.46
2022-11-24T10:43:12.500Z,37.53
2022-11-24T10:45:40.293Z,37.36
2022-11-24T10:48:17.932Z,37.46
2022-11-24T10:50:45.202Z,37.32
2022-11-24T10:53:23.162Z,37.41
2022-11-24T10:55:55.939Z,37.60
2022-11-24T11:00:50.908Z,37.18
2022-11-24T11:03:26.511Z,37.35
2022-11-24T11:06:14.274Z,37.13
2022-11-24T11:08:41.214Z,37.22
2022-11-24T11:11:22.050Z,37.15
2022-11-24T11:14:04.351Z,37.45
2022-11-24T11:16:46.173Z,37.22
2022-11-24T11:19:48.976Z,37.24
2022-11-24T11:22:35.631Z,37.38
2022-11-24T11:25:35.513Z,37.29
2022-11-24T11:28:18.871Z,37.09
2022-11-24T11:31:17.234Z,37.21
2022-11-24T11:34:03.641Z,37.29
2022-11-24T11:36:33.053Z,37.13
2022-11-24T11:39:00.056Z,37.06
2022-11-24T11:41:32.789Z,37.17
2022-11-24T11:44:32.482Z,36.96
2022-11-24T11:47:08.232Z,36.96
2022-11-24T11:49:38.227Z,36.85
2022-11-24T11:52:25.806Z,36.26
2022-11-24T11:55:08.437Z,36.52
2022-11-24T11:57:46.711Z,36.70
2022-11-24T12:00:20.203Z,36.97
2022-11-24T12:03:35.049Z,37.03
2022-11-24T12:06:43.410Z,36.79
2022-11-24T12:09:39.812Z,36.94
2022-11-24T12:12:40.370Z,36.95
2022-11-24T12:15:16.013Z,37.11
2022-11-24T12:17:51.979Z,36.85
2022-11-24T12:20:31.247Z,37.12
2022-11-24T12:23:06.811Z,37.06
2022-11-24T12:25:40.717Z,36.94
2022-11-24T12:28:19.637Z,37.04
2022-11-24T12:30:57.927Z,37.08
2022-11-24T12:33:50.942Z,37.36
2022-11-24T12:36:30.982Z,37.15
2022-11-24T12:39:14.130Z,37.03
2022-11-24T12:41:43.834Z,37.23
2022-11-24T12:44:35.279Z,37.31
2022-11-24T12:47:17.710Z,36.88
2022-11-24T12:50:02.845Z,36.97
2022-11-24T12:52:35.697Z,37.19
2022-11-24T12:55:03.748Z,36.86
2022-11-24T12:57:44.640Z,36.98
2022-11-24T13:00:23.803Z,37.16
2022-11-24T13:03:12.262Z,37.31
2022-11-24T13:05:49.773Z,37.13
2022-11-24T13:08:16.631Z,36.85
2022-11-24T13:10:58.566Z,37.04
2022-11-24T13:13:57.083Z,37.17
2022-11-24T13:16:59.278Z,37.42
2022-11-24T13:19:17.180Z,37.67
2022-11-24T13:21:56.764Z,38.00
2022-11-24T13:24:26.530Z,37.85
2022-11-24T13:27:15.878Z,38.29
2022-11-24T13:29:49.929Z,38.81
2022-11-24T13:32:19.391Z,38.88
2022-11-24T13:34:46.931Z,39.14
2022-11-24T13:37:31.667Z,38.99
2022-11-24T13:40:22.835Z,39.47
2022-11-24T13:43:00.340Z,39.65
2022-11-24T13:45:40.535Z,40.13
2022-11-24T13:48:19.548Z,40.26
2022-11-24T13:50:55.949Z,40.28
2022-11-24T13:53:35.472Z,40.64
2022-11-24T13:56:14.137Z,40.43
2022-11-24T13:58:50.898Z,40.92
2022-11-24T14:01:26.275Z,40.96
2022-11-24T14:04:31.426Z,40.96
2022-11-24T14:07:14.056Z,41.04
2022-11-24T14:09:47.972Z,41.49
2022-11-24T14:12:23.125Z,41.42
2022-11-24T14:14:51.914Z,41.36
2022-11-24T14:17:18.334Z,41.63
2022-11-24T14:19:47.855Z,41.64
2022-11-24T14:22:21.025Z,41.76
2022-11-24T14:24:56.979Z,42.01
2022-11-24T14:27:34.067Z,41.85
2022-11-24T14:30:16.778Z,41.97
2022-11-24T14:32:56.867Z,41.84
2022-11-24T14:35:26.262Z,41.93
2022-11-24T14:37:53.187Z,42.04
2022-11-24T14:40:46.621Z,41.79
2022-11-24T14:43:30.433Z,41.96
2022-11-24T14:46:09.276Z,42.23
2022-11-24T14:48:38.202Z,42.30
2022-11-24T14:51:12.205Z,42.13
2022-11-24T14:53:46.847Z,42.43
2022-11-24T14:56:27.246Z,42.31
2022-11-24T14:58:55.077Z,42.29
2022-11-24T15:01:26.255Z,42.56
2022-11-24T15:05:00.996Z,42.61
2022-11-24T15:07:29.470Z,42.41
2022-11-24T15:09:58.911Z,42.34
2022-11-24T15:12:40.975Z,42.56
2022-11-24T15:17:30.355Z,41.65
2022-11-24T15:20:07.443Z,40.84
2022-11-24T15:22:43.569Z,39.95
2022-11-24T15:25:33.621Z,39.18
2022-11-24T15:28:00.895Z,39.24
2022-11-24T15:30:28.406Z,38.85
2022-11-24T15:32:59.637Z,38.41
2022-11-24T15:35:29.778Z,38.40
2022-11-24T15:37:56.637Z,38.02
2022-11-24T15:40:23.556Z,37.84
2022-11-24T15:43:04.997Z,37.48
2022-11-24T15:45:34.224Z,37.40
2022-11-24T15:50:21.437Z,37.98
2022-11-24T15:52:48.732Z,38.29
2022-11-24T15:55:21.660Z,38.77
2022-11-24T15:57:48.847Z,39.02
2022-11-24T16:00:21.529Z,39.16
2022-11-24T16:02:48.566Z,39.48
2022-11-24T16:05:16.783Z,39.90
2022-11-24T16:07:44.726Z,40.17
2022-11-24T16:10:26.847Z,40.56
2022-11-24T16:12:53.600Z,41.87
2022-11-24T16:15:23.160Z,42.69
2022-11-24T16:17:50.038Z,43.71
2022-11-24T16:20:16.882Z,44.49
2022-11-24T16:22:43.809Z,44.49
2022-11-24T16:25:11.146Z,44.27
2022-11-24T16:27:38.230Z,44.80
2022-11-24T16:30:06.190Z,46.41
2022-11-24T16:32:32.843Z,47.05
2022-11-24T16:34:59.427Z,47.08
2022-11-24T16:37:26.249Z,46.55
2022-11-24T16:39:53.060Z,46.09
2022-11-24T16:42:19.894Z,45.55
2022-11-24T16:44:46.432Z,45.10
2022-11-24T16:47:13.042Z,43.83
2022-11-24T16:49:39.769Z,43.06
2022-11-24T16:52:06.546Z,42.49
2022-11-24T16:54:33.492Z,41.80
2022-11-24T16:57:00.331Z,41.51
2022-11-24T16:59:26.884Z,41.12
2022-11-24T17:01:53.591Z,40.82
2022-11-24T17:04:20.502Z,40.31
2022-11-24T17:06:47.064Z,39.98
2022-11-24T17:09:13.615Z,39.89
2022-11-24T17:11:42.811Z,39.91
2022-11-24T17:14:10.695Z,39.45
2022-11-24T17:16:38.452Z,39.55
2022-11-24T17:19:05.655Z,39.19
2022-11-24T17:21:32.943Z,39.02
2022-11-24T17:24:05.152Z,39.02
2022-11-24T17:26:32.010Z,38.92
2022-11-24T17:28:58.886Z,38.91
2022-11-24T17:31:26.498Z,38.46
2022-11-24T17:33:56.816Z,38.62
2022-11-24T17:36:24.665Z,38.28
2022-11-24T17:38:51.404Z,38.22
2022-11-24T17:41:19.529Z,38.38
2022-11-24T17:43:50.562Z,38.15
2022-11-24T17:46:19.066Z,38.26
2022-11-24T17:48:51.780Z,38.12
2022-11-24T17:51:20.503Z,38.35
2022-11-24T17:53:49.380Z,38.28
2022-11-24T17:56:23.499Z,38.31
2022-11-24T17:58:54.963Z,37.92
2022-11-24T18:01:23.043Z,37.85
2022-11-24T18:03:53.376Z,37.96
2022-11-24T18:06:35.175Z,37.62
2022-11-24T18:09:07.697Z,37.52
2022-11-24T18:11:36.814Z,37.14
2022-11-24T18:14:04.469Z,37.04
2022-11-24T18:16:36.506Z,36.97
2022-11-24T18:19:09.069Z,36.89
2022-11-24T18:21:37.939Z,36.93
2022-11-24T18:24:04.619Z,36.69
2022-11-24T18:28:34.347Z,36.63
2022-11-24T18:32:11.204Z,36.49
2022-11-24T18:35:10.319Z,36.55
2022-11-24T18:37:43.261Z,36.65
2022-11-24T18:40:10.927Z,36.21
2022-11-24T18:45:04.263Z,36.19
2022-11-24T18:47:31.477Z,36.31
2022-11-24T18:50:00.176Z,36.40
2022-11-24T18:52:26.899Z,36.35
2022-11-24T18:56:45.191Z,36.21
2022-11-24T18:59:11.774Z,36.33
2022-11-24T19:01:38.502Z,36.02
2022-11-24T19:04:05.246Z,36.16
2022-11-24T19:06:37.306Z,36.32
2022-11-24T19:09:16.388Z,36.62
2022-11-24T19:11:44.888Z,36.65
2022-11-24T19:14:14.298Z,37.02
2022-11-24T19:16:41.778Z,37.17
2022-11-24T19:19:08.658Z,37.61
2022-11-24T19:21:38.342Z,37.81
2022-11-24T19:24:07.194Z,38.16
2022-11-24T19:26:37.486Z,38.04
2022-11-24T19:29:05.086Z,38.43
2022-11-24T19:31:32.307Z,38.87
2022-11-24T19:33:59.700Z,38.90
2022-11-24T19:36:26.754Z,38.78
2022-11-24T19:38:55.826Z,38.81
2022-11-24T19:41:25.196Z,38.75
2022-11-24T19:43:54.805Z,38.44
2022-11-24T19:46:26.560Z,38.49
2022-11-24T19:48:57.038Z,38.07
2022-11-24T19:51:30.717Z,38.34
2022-11-24T19:53:57.504Z,37.84
2022-11-24T19:56:27.071Z,37.76
2022-11-24T19:58:55.318Z,37.89
2022-11-24T20:01:33.896Z,37.58
2022-11-24T20:05:42.642Z,37.70
2022-11-24T20:08:09.275Z,37.55
2022-11-24T20:10:35.891Z,37.27
2022-11-24T20:13:02.506Z,37.37
2022-11-24T20:15:32.109Z,37.29
2022-11-24T20:17:58.955Z,37.32
2022-11-24T20:20:25.767Z,37.01
2022-11-24T20:22:52.371Z,37.35
2022-11-24T20:25:19.352Z,37.20
2022-11-24T20:27:46.295Z,37.13
2022-11-24T20:30:13.157Z,36.99
2022-11-24T20:32:42.795Z,36.77
2022-11-24T20:35:13.601Z,36.90
2022-11-24T20:37:47.517Z,36.96
2022-11-24T20:40:14.238Z,36.81
2022-11-24T20:42:41.294Z,36.78
2022-11-24T20:45:08.173Z,36.66
2022-11-24T20:47:34.860Z,36.71
2022-11-24T20:50:01.540Z,36.80
2022-11-24T20:52:30.916Z,36.89
2022-11-24T20:54:59.088Z,37.18
2022-11-24T20:57:29.099Z,37.41
2022-11-24T20:59:55.675Z,37.50
2022-11-24T21:02:22.627Z,36.91
2022-11-24T21:07:13.592Z,37.23
2022-11-24T21:09:45.102Z,37.28
2022-11-24T21:12:11.820Z,37.17
2022-11-24T21:14:38.686Z,37.16
2022-11-24T21:17:08.412Z,36.91
2022-11-24T21:19:34.924Z,36.83
2022-11-24T21:22:01.516Z,37.00
2022-11-24T21:25:10.095Z,36.99
2022-11-24T21:27:37.022Z,36.93
2022-11-24T21:30:05.063Z,36.76
2022-11-24T21:32:32.235Z,36.80
2022-11-24T21:34:58.834Z,36.90
2022-11-24T21:37:25.752Z,37.04
2022-11-24T21:39:52.656Z,37.56
2022-11-24T21:42:19.460Z,37.97
2022-11-24T21:44:45.979Z,37.94
2022-11-24T21:47:12.711Z,38.08
2022-11-24T21:49:39.271Z,38.15
2022-11-24T21:52:05.951Z,38.55
2022-11-24T21:54:32.743Z,38.47
2022-11-24T21:56:59.614Z,38.92
2022-11-24T21:59:26.125Z,38.90
2022-11-24T22:01:52.813Z,38.82
2022-11-24T22:04:19.413Z,38.48
2022-11-24T22:06:46.361Z,38.53
2022-11-24T22:09:17.785Z,37.93
2022-11-24T22:12:43.250Z,37.60
2022-11-24T22:15:10.330Z,37.59
2022-11-24T22:17:36.854Z,37.79
2022-11-24T22:20:07.362Z,37.62
2022-11-24T22:22:34.077Z,37.16
2022-11-24T22:25:00.866Z,36.46
2022-11-24T22:27:27.874Z,36.55
2022-11-24T22:29:59.749Z,36.23
2022-11-24T22:32:29.681Z,36.13
2022-11-24T22:34:56.227Z,36.11
2022-11-24T22:37:22.900Z,35.80
2022-11-24T22:39:49.433Z,35.72
2022-11-24T22:42:16.073Z,35.77
2022-11-24T22:44:42.767Z,35.65
2022-11-24T22:47:09.427Z,35.85
2022-11-24T22:49:35.937Z,35.92
2022-11-24T22:52:02.733Z,35.64
2022-11-24T22:54:29.288Z,35.62
2022-11-24T22:56:55.838Z,35.67
2022-11-24T23:01:13.045Z,35.72
2022-11-24T23:03:40.702Z,35.93
2022-11-24T23:06:11.463Z,35.85
2022-11-24T23:08:38.433Z,35.83
2022-11-24T23:11:10.845Z,35.84
2022-11-24T23:13:43.976Z,35.58
2022-11-24T23:16:19.953Z,35.90
2022-11-24T23:18:53.588Z,35.80
2022-11-24T23:21:24.708Z,35.96
2022-11-24T23:23:52.885Z,35.71
2022-11-24T23:26:25.293Z,36.09
2022-11-24T23:28:52.377Z,35.85
2022-11-24T23:31:21.505Z,36.18
2022-11-24T23:33:48.727Z,36.06
2022-11-24T23:36:17.878Z,35.83
2022-11-24T23:41:06.251Z,36.02
2022-11-24T23:43:34.590Z,36.02
2022-11-24T23:46:06.371Z,36.05
2022-11-24T23:49:53.026Z,35.84
2022-11-24T23:54:28.834Z,36.06
2022-11-24T23:59:52.112Z,35.83
